Time;durP1;ratioP1;P1;durP2;ratioP2;P2;SDS_P1;SDS_P2;PMS_P1;PMS_P2;Temp;Humidity;BMP_temperature;BMP_pressure;BME280_temperature;BME280_humidity;BME280_pressure;Samples;Min_cycle;Max_cycle;Signal;HPM_P1;HPM_P2
2022/09/09 00:02:59;;;;;;;5.37;2.37;;;;;;;16.66;100.00;99496.75;4283733;33;33797;-80
2022/09/09 00:05:59;;;;;;;2.45;1.90;;;;;;;17.12;100.00;99481.34;4294064;33;34427;-80
2022/09/09 00:08:58;;;;;;;5.50;2.37;;;;;;;17.37;100.00;99481.13;4305905;33;35936;-80
2022/09/09 00:11:52;;;;;;;6.75;2.35;;;;;;;17.48;100.00;99474.66;4298623;33;183582;-80
2022/09/09 00:14:54;;;;;;;2.67;1.80;;;;;;;16.93;100.00;99484.00;4295936;33;34991;-80
2022/09/09 00:17:48;;;;;;;8.35;2.08;;;;;;;17.11;100.00;99501.88;4270962;33;35524;-80
2022/09/09 00:20:53;;;;;;;3.15;2.20;;;;;;;17.34;100.00;99506.78;4283616;33;36019;-80
2022/09/09 00:23:44;;;;;;;4.32;2.10;;;;;;;16.78;100.00;99503.03;4289346;33;34882;-80
2022/09/09 00:26:37;;;;;;;5.00;2.20;;;;;;;17.34;100.00;99492.94;4275161;33;35268;-80
2022/09/09 00:29:27;;;;;;;2.75;2.00;;;;;;;17.26;100.00;99491.94;4294667;33;34449;-80
2022/09/09 00:32:18;;;;;;;3.17;2.12;;;;;;;17.49;100.00;99498.41;4284988;33;34912;-80
2022/09/09 00:35:17;;;;;;;6.60;2.60;;;;;;;17.37;100.00;99495.78;4290182;33;34188;-80
2022/09/09 00:38:16;;;;;;;3.45;2.40;;;;;;;16.91;100.00;99489.94;4293067;33;34143;-80
2022/09/09 00:41:11;;;;;;;3.47;2.22;;;;;;;17.08;100.00;99499.84;4288971;33;35339;-80
2022/09/09 00:44:02;;;;;;;6.70;2.75;;;;;;;16.99;100.00;99497.25;4294863;33;34459;-80
2022/09/09 00:47:22;;;;;;;7.53;2.25;;;;;;;17.30;100.00;99501.12;4284949;33;34646;-80
2022/09/09 00:50:35;;;;;;;3.53;2.28;;;;;;;16.79;100.00;99492.75;4304761;33;34073;-80
2022/09/09 00:53:21;;;;;;;4.25;2.33;;;;;;;17.20;100.00;99490.63;4292424;33;35773;-80
2022/09/09 00:56:19;;;;;;;3.72;2.45;;;;;;;16.85;100.00;99502.44;4295225;33;35136;-81
2022/09/09 00:59:12;;;;;;;4.55;2.58;;;;;;;17.27;100.00;99501.84;4284789;33;34693;-80
2022/09/09 01:01:58;;;;;;;4.62;2.40;;;;;;;17.45;100.00;99508.63;4304973;33;34249;-81
2022/09/09 01:04:45;;;;;;;5.37;2.30;;;;;;;17.47;100.00;99497.97;4299181;33;35606;-80
2022/09/09 01:07:32;;;;;;;3.80;2.40;;;;;;;16.94;100.00;99508.59;4296862;33;36066;-80
2022/09/09 01:10:35;;;;;;;3.15;2.25;;;;;;;16.87;100.00;99511.16;4306488;33;35492;-80
2022/09/09 01:13:30;;;;;;;5.05;2.80;;;;;;;16.63;100.00;99520.37;4280169;33;34085;-81
2022/09/09 01:16:17;;;;;;;3.42;2.67;;;;;;;16.67;100.00;99526.00;4303686;33;35813;-81
2022/09/09 01:19:07;;;;;;;4.93;2.40;;;;;;;16.91;100.00;99525.91;4280080;33;36018;-81
2022/09/09 01:22:18;;;;;;;3.40;2.33;;;;;;;16.51;100.00;99524.03;4285546;33;34581;-80
2022/09/09 01:25:18;;;;;;;4.75;2.60;;;;;;;16.76;100.00;99524.72;4296178;33;34296;-80
2022/09/09 01:28:10;;;;;;;3.37;2.57;;;;;;;16.63;100.00;99540.56;4301057;33;34598;-81
2022/09/09 01:30:57;;;;;;;4.80;2.67;;;;;;;16.27;100.00;99527.69;4298529;33;35942;-80
2022/09/09 01:33:44;;;;;;;6.68;3.15;;;;;;;16.37;100.00;99529.97;4312800;33;34765;-81
2022/09/09 01:36:56;;;;;;;7.53;2.90;;;;;;;16.16;100.00;99526.59;4286445;33;34154;-80
2022/09/09 01:39:44;;;;;;;4.15;2.97;;;;;;;16.37;100.00;99537.47;4300744;33;34575;-80
2022/09/09 01:42:31;;;;;;;4.37;2.85;;;;;;;16.31;100.00;99538.88;4284238;33;34479;-79
2022/09/09 01:45:18;;;;;;;5.60;3.17;;;;;;;16.45;100.00;99544.81;4308640;33;35462;-80
2022/09/09 01:48:04;;;;;;;4.57;3.00;;;;;;;16.31;100.00;99549.94;4284747;33;34208;-81
2022/09/09 01:50:51;;;;;;;4.72;3.30;;;;;;;16.04;100.00;99557.81;4298844;33;34353;-79
2022/09/09 01:53:39;;;;;;;6.18;3.10;;;;;;;16.01;100.00;99557.72;4312315;33;35047;-80
2022/09/09 01:56:26;;;;;;;4.62;2.92;;;;;;;15.90;100.00;99547.16;4297741;33;34701;-80
2022/09/09 01:59:24;;;;;;;5.00;3.20;;;;;;;15.99;100.00;99549.78;4298143;33;34994;-81
2022/09/09 02:02:17;;;;;;;6.18;3.45;;;;;;;15.93;100.00;99540.12;4300309;33;34646;-81
2022/09/09 02:05:40;;;;;;;5.30;3.22;;;;;;;16.03;100.00;99536.87;4297748;33;35924;-80
2022/09/09 02:08:43;;;;;;;6.35;3.20;;;;;;;16.02;100.00;99543.53;4306215;33;34724;-81
2022/09/09 02:11:30;;;;;;;7.70;3.58;;;;;;;16.01;100.00;99539.19;4294828;33;34108;-80
2022/09/09 02:14:23;;;;;;;5.93;3.40;;;;;;;15.66;100.00;99544.41;4300374;33;34596;-80
2022/09/09 02:17:11;;;;;;;4.25;3.22;;;;;;;15.89;100.00;99539.22;4288805;33;34915;-80
2022/09/09 02:20:04;;;;;;;5.85;3.33;;;;;;;15.74;100.00;99543.53;4307009;33;34743;-80
2022/09/09 02:22:53;;;;;;;6.07;3.78;;;;;;;15.85;100.00;99541.06;4300143;33;34344;-81
2022/09/09 02:25:41;;;;;;;4.53;3.12;;;;;;;15.77;100.00;99539.22;4298878;33;35611;-79
2022/09/09 02:28:31;;;;;;;7.18;3.60;;;;;;;15.88;100.00;99535.66;4298830;33;35054;-80
2022/09/09 02:31:20;;;;;;;5.95;3.58;;;;;;;15.89;100.00;99528.97;4296202;33;35410;-80
2022/09/09 02:34:10;;;;;;;3.67;2.65;;;;;;;15.84;100.00;99526.44;4289138;33;34114;-80
2022/09/09 02:36:57;;;;;;;5.75;4.07;;;;;;;15.74;100.00;99526.94;4290381;33;34796;-80
2022/09/09 02:39:44;;;;;;;5.03;3.47;;;;;;;16.13;100.00;99521.75;4301181;33;35024;-80
2022/09/09 02:42:30;;;;;;;5.50;3.20;;;;;;;15.91;100.00;99523.13;4291938;33;35422;-80
2022/09/09 02:45:19;;;;;;;4.85;3.30;;;;;;;15.72;100.00;99523.72;4297973;33;34141;-81
2022/09/09 02:48:23;;;;;;;7.85;4.05;;;;;;;15.97;100.00;99524.47;4287933;33;34566;-80
2022/09/09 02:51:23;;;;;;;5.85;3.40;;;;;;;15.77;100.00;99528.19;4298398;33;35503;-81
2022/09/09 02:54:31;;;;;;;5.75;3.50;;;;;;;16.01;100.00;99536.41;4297356;33;33386;-80
2022/09/09 02:57:24;;;;;;;6.12;3.58;;;;;;;15.81;100.00;99534.63;4277712;33;35065;-80
2022/09/09 03:00:11;;;;;;;5.87;3.62;;;;;;;15.70;100.00;99537.88;4288029;33;34696;-80
2022/09/09 03:02:57;;;;;;;5.25;3.72;;;;;;;15.64;100.00;99538.44;4307394;33;35978;-81
2022/09/09 03:05:44;;;;;;;5.82;3.35;;;;;;;15.89;100.00;99540.03;4299616;33;34549;-80
2022/09/09 03:08:31;;;;;;;5.12;3.17;;;;;;;15.65;100.00;99545.56;4284194;33;35041;-80
2022/09/09 03:11:17;;;;;;;6.97;4.05;;;;;;;15.79;100.00;99539.69;4293018;33;34707;-81
2022/09/09 03:14:04;;;;;;;5.43;3.35;;;;;;;15.68;100.00;99545.72;4296018;33;34971;-81
2022/09/09 03:16:51;;;;;;;5.05;3.62;;;;;;;16.01;100.00;99547.47;4290221;33;35701;-81
2022/09/09 03:19:38;;;;;;;5.85;3.58;;;;;;;15.61;100.00;99547.41;4307679;33;35213;-80
2022/09/09 03:22:25;;;;;;;6.22;3.28;;;;;;;15.53;100.00;99554.66;4313824;33;35478;-80
2022/09/09 03:25:13;;;;;;;4.90;3.25;;;;;;;15.73;100.00;99553.75;4293112;33;33715;-80
2022/09/09 03:27:59;;;;;;;5.25;3.40;;;;;;;16.15;100.00;99556.19;4310185;33;35491;-80
2022/09/09 03:30:45;;;;;;;5.75;3.15;;;;;;;16.66;100.00;99550.09;4291280;33;34194;-80
2022/09/09 03:33:32;;;;;;;7.68;3.53;;;;;;;16.97;100.00;99554.91;4301568;33;34611;-80
2022/09/09 03:36:19;;;;;;;6.55;3.42;;;;;;;16.89;100.00;99547.59;4312647;33;36028;-79
2022/09/09 03:39:05;;;;;;;6.35;3.47;;;;;;;16.70;100.00;99555.72;4296408;33;35463;-78
2022/09/09 03:41:52;;;;;;;5.70;3.25;;;;;;;16.56;100.00;99551.44;4289923;33;34178;-79
2022/09/09 03:44:39;;;;;;;8.38;4.20;;;;;;;16.52;100.00;99556.03;4310456;33;35607;-80
2022/09/09 03:47:26;;;;;;;5.72;4.15;;;;;;;16.69;100.00;99559.66;4297113;33;34898;-80
2022/09/09 03:50:13;;;;;;;5.87;4.18;;;;;;;16.76;100.00;99559.84;4296727;33;34599;-80
2022/09/09 03:52:59;;;;;;;6.50;4.22;;;;;;;16.47;100.00;99559.06;4305447;33;35072;-81
2022/09/09 03:55:52;;;;;;;5.68;4.07;;;;;;;16.31;100.00;99567.31;4312387;33;35587;-79
2022/09/09 03:58:39;;;;;;;8.43;5.20;;;;;;;16.19;100.00;99559.03;4284711;33;35919;-78
2022/09/09 04:01:25;;;;;;;8.35;5.62;;;;;;;15.92;100.00;99566.94;4299550;33;34668;-79
2022/09/09 04:04:12;;;;;;;8.60;5.80;;;;;;;15.75;100.00;99572.75;4285848;33;34105;-78
2022/09/09 04:06:59;;;;;;;8.68;5.53;;;;;;;15.83;100.00;99579.31;4283051;33;34566;-78
2022/09/09 04:09:45;;;;;;;9.10;5.60;;;;;;;16.08;100.00;99572.56;4288586;33;34492;-79
2022/09/09 04:12:32;;;;;;;10.27;5.25;;;;;;;15.91;100.00;99565.34;4303530;33;34767;-78
2022/09/09 04:15:19;;;;;;;10.60;5.45;;;;;;;16.05;100.00;99564.97;4282446;33;35334;-78
2022/09/09 04:18:05;;;;;;;7.25;5.18;;;;;;;16.39;100.00;99563.59;4293692;33;33362;-78
2022/09/09 04:20:53;;;;;;;7.25;5.45;;;;;;;15.72;100.00;99579.75;4299489;33;36035;-78
2022/09/09 04:23:39;;;;;;;8.38;6.10;;;;;;;16.02;100.00;99565.66;4298718;33;34892;-78
2022/09/09 04:26:26;;;;;;;7.97;5.62;;;;;;;16.02;100.00;99565.66;4303912;33;35069;-79
2022/09/09 04:29:12;;;;;;;7.68;5.50;;;;;;;15.95;100.00;99557.97;4305375;33;34722;-79
2022/09/09 04:31:58;;;;;;;9.05;6.00;;;;;;;16.52;100.00;99561.56;4296141;33;36110;-79
2022/09/09 04:34:45;;;;;;;9.57;6.40;;;;;;;16.62;100.00;99569.38;4292193;33;33906;-79
2022/09/09 04:37:33;;;;;;;8.18;5.55;;;;;;;15.81;100.00;99565.03;4307521;33;34156;-79
2022/09/09 04:40:19;;;;;;;9.95;6.43;;;;;;;16.24;100.00;99556.03;4292138;33;34668;-78
2022/09/09 04:43:05;;;;;;;7.18;5.65;;;;;;;15.66;100.00;99552.69;4306193;33;35104;-78
2022/09/09 04:45:52;;;;;;;8.25;5.45;;;;;;;15.83;100.00;99543.37;4311394;33;34271;-79
2022/09/09 04:48:39;;;;;;;7.78;5.82;;;;;;;16.03;100.00;99550.69;4284374;33;35069;-78
2022/09/09 04:51:26;;;;;;;9.20;6.20;;;;;;;16.21;100.00;99556.75;4296426;33;34565;-78
2022/09/09 04:54:13;;;;;;;7.97;5.68;;;;;;;16.41;100.00;99552.19;4308811;33;34975;-78
2022/09/09 04:56:59;;;;;;;6.95;5.20;;;;;;;16.38;100.00;99559.22;4287596;33;34687;-78
2022/09/09 04:59:46;;;;;;;8.68;5.60;;;;;;;17.35;100.00;99552.69;4296541;33;34145;-79
2022/09/09 05:02:33;;;;;;;7.28;5.72;;;;;;;16.24;100.00;99555.25;4306072;33;34660;-78
2022/09/09 05:05:20;;;;;;;7.55;5.35;;;;;;;16.11;100.00;99557.25;4307190;33;34998;-78
2022/09/09 05:08:08;;;;;;;7.55;6.05;;;;;;;16.40;100.00;99572.69;4306816;33;35962;-78
2022/09/09 05:10:55;;;;;;;9.82;6.32;;;;;;;16.72;100.00;99567.25;4296343;33;33842;-77
2022/09/09 05:13:41;;;;;;;10.60;6.53;;;;;;;15.81;100.00;99567.78;4308256;33;34632;-78
2022/09/09 05:16:27;;;;;;;8.35;6.32;;;;;;;15.90;100.00;99571.22;4308606;33;36072;-78
2022/09/09 05:19:14;;;;;;;8.55;5.47;;;;;;;15.76;100.00;99579.06;4306386;33;33328;-79
2022/09/09 05:22:01;;;;;;;11.70;6.43;;;;;;;16.13;100.00;99569.53;4292808;33;34096;-78
2022/09/09 05:24:50;;;;;;;8.10;6.37;;;;;;;15.83;100.00;99569.06;4305465;33;34566;-78
2022/09/09 05:27:37;;;;;;;8.52;6.60;;;;;;;15.62;100.00;99571.09;4302950;33;35639;-78
2022/09/09 05:30:24;;;;;;;8.70;6.43;;;;;;;15.99;100.00;99571.88;4312088;33;35639;-78
2022/09/09 05:33:11;;;;;;;8.80;6.30;;;;;;;15.71;100.00;99580.94;4305506;33;34237;-78
2022/09/09 05:36:02;;;;;;;9.20;6.25;;;;;;;15.71;100.00;99589.22;4295008;33;35720;-78
2022/09/09 05:38:50;;;;;;;7.32;5.62;;;;;;;15.76;100.00;99595.63;4293480;33;34548;-77
2022/09/09 05:41:36;;;;;;;8.57;5.72;;;;;;;15.98;100.00;99584.09;4306183;33;35512;-77
2022/09/09 05:44:24;;;;;;;8.15;5.80;;;;;;;16.03;100.00;99592.16;4284635;33;34156;-78
2022/09/09 05:47:11;;;;;;;10.48;5.72;;;;;;;16.30;100.00;99584.25;4303423;33;35499;-77
2022/09/09 05:49:58;;;;;;;8.00;5.53;;;;;;;16.52;100.00;99583.69;4287748;33;34936;-77
2022/09/09 05:52:44;;;;;;;7.32;5.28;;;;;;;16.17;100.00;99594.53;4293042;33;34645;-77
2022/09/09 05:55:31;;;;;;;9.23;5.50;;;;;;;16.26;100.00;99586.12;4309370;33;33765;-77
2022/09/09 05:58:18;;;;;;;6.57;5.18;;;;;;;16.45;100.00;99586.28;4293047;33;35627;-76
2022/09/09 06:01:11;;;;;;;7.50;5.47;;;;;;;16.08;100.00;99591.91;4280775;33;34974;-76
2022/09/09 06:03:59;;;;;;;8.35;6.03;;;;;;;16.66;100.00;99590.81;4293971;33;34899;-77
2022/09/09 06:06:46;;;;;;;7.50;5.20;;;;;;;16.03;100.00;99583.06;4293282;33;33844;-77
2022/09/09 06:09:34;;;;;;;7.62;5.30;;;;;;;16.59;100.00;99588.63;4302110;33;34656;-77
2022/09/09 06:12:20;;;;;;;7.72;5.07;;;;;;;16.86;100.00;99587.84;4304261;33;35979;-76
2022/09/09 06:15:08;;;;;;;8.13;4.87;;;;;;;16.82;100.00;99586.12;4296905;33;35134;-76
2022/09/09 06:17:55;;;;;;;9.23;5.22;;;;;;;16.71;100.00;99579.50;4293128;33;33999;-77
2022/09/09 06:20:42;;;;;;;7.32;5.12;;;;;;;16.43;100.00;99583.06;4310018;33;34205;-77
2022/09/09 06:23:28;;;;;;;9.30;5.30;;;;;;;16.78;100.00;99579.69;4292945;33;35997;-76
2022/09/09 06:26:18;;;;;;;7.57;5.85;;;;;;;16.56;100.00;99590.16;4306016;33;34507;-77
2022/09/09 06:29:06;;;;;;;7.90;5.75;;;;;;;16.58;100.00;99590.59;4284406;33;34024;-77
2022/09/09 06:31:53;;;;;;;6.82;4.55;;;;;;;16.95;100.00;99592.41;4286602;33;34481;-77
2022/09/09 06:34:39;;;;;;;7.75;4.28;;;;;;;17.09;100.00;99588.03;4292507;33;36126;-77
2022/09/09 06:37:26;;;;;;;7.93;3.80;;;;;;;17.97;100.00;99596.13;4298061;33;35572;-77
2022/09/09 06:40:12;;;;;;;6.70;4.18;;;;;;;18.11;100.00;99589.31;4296164;33;33824;-78
2022/09/09 06:43:00;;;;;;;5.40;3.72;;;;;;;17.95;100.00;99594.88;4285762;33;34179;-77
2022/09/09 06:45:59;;;;;;;7.15;3.65;;;;;;;17.23;100.00;99590.37;4305274;33;35890;-78
2022/09/09 06:48:46;;;;;;;5.68;3.65;;;;;;;17.50;100.00;99593.41;4287972;33;35511;-77
2022/09/09 06:51:35;;;;;;;4.95;3.40;;;;;;;18.07;100.00;99596.72;4293782;33;35154;-77
2022/09/09 06:54:23;;;;;;;6.10;3.47;;;;;;;17.94;100.00;99596.84;4289970;33;34157;-78
2022/09/09 06:57:10;;;;;;;7.18;3.80;;;;;;;17.47;100.00;99600.47;4291054;33;34823;-78
2022/09/09 07:00:18;;;;;;;7.05;3.95;;;;;;;17.46;100.00;99601.62;4292106;33;36113;-79
2022/09/09 07:03:05;;;;;;;4.72;3.03;;;;;;;17.63;100.00;99606.00;4302818;33;33968;-80
2022/09/09 07:05:56;;;;;;;5.03;3.47;;;;;;;17.59;100.00;99609.84;4297403;33;34674;-78
2022/09/09 07:08:43;;;;;;;4.40;3.10;;;;;;;17.04;100.00;99604.91;4295130;33;35664;-77
2022/09/09 07:11:44;;;;;;;5.72;3.92;;;;;;;17.01;100.00;99615.88;4298798;33;35471;-79
2022/09/09 07:14:31;;;;;;;4.55;3.05;;;;;;;16.99;100.00;99615.44;4291140;33;34998;-80
2022/09/09 07:17:17;;;;;;;3.95;2.80;;;;;;;17.30;100.00;99606.34;4309459;33;35639;-79
2022/09/09 07:20:04;;;;;;;5.70;3.28;;;;;;;17.37;100.00;99601.00;4300885;33;34854;-80
2022/09/09 07:22:54;;;;;;;4.55;2.58;;;;;;;17.77;100.00;99608.31;4291135;33;34547;-80
2022/09/09 07:25:45;;;;;;;6.62;3.37;;;;;;;17.88;100.00;99612.16;4278377;33;35097;-79
2022/09/09 07:28:32;;;;;;;5.30;3.13;;;;;;;17.42;100.00;99611.81;4291659;33;34597;-79
2022/09/09 07:31:20;;;;;;;4.80;2.80;;;;;;;18.06;100.00;99620.87;4294122;33;36079;-79
2022/09/09 07:34:07;;;;;;;4.35;2.70;;;;;;;17.90;100.00;99617.34;4299405;33;34677;-80
2022/09/09 07:36:54;;;;;;;4.68;2.78;;;;;;;18.36;100.00;99614.81;4280434;33;34117;-79
2022/09/09 07:39:41;;;;;;;4.35;2.60;;;;;;;18.26;100.00;99627.25;4290052;33;34627;-80
2022/09/09 07:42:27;;;;;;;4.00;2.15;;;;;;;18.13;100.00;99628.53;4293983;33;34927;-79
2022/09/09 07:45:14;;;;;;;2.83;1.90;;;;;;;18.46;100.00;99628.09;4295304;33;34523;-79
2022/09/09 07:48:01;;;;;;;3.33;1.85;;;;;;;18.78;100.00;99633.50;4303724;33;35078;-79
2022/09/09 07:50:48;;;;;;;4.55;2.00;;;;;;;19.44;100.00;99621.25;4287337;33;33446;-79
2022/09/09 07:53:36;;;;;;;3.22;1.52;;;;;;;19.17;100.00;99623.16;4279835;33;34802;-78
2022/09/09 07:56:23;;;;;;;3.28;1.92;;;;;;;19.55;100.00;99629.75;4282660;33;34581;-79
2022/09/09 07:59:10;;;;;;;2.87;1.85;;;;;;;19.55;100.00;99625.03;4276350;33;35227;-80
2022/09/09 08:01:58;;;;;;;2.22;1.70;;;;;;;19.35;100.00;99631.00;4297235;33;35380;-78
2022/09/09 08:04:46;;;;;;;3.47;1.60;;;;;;;19.03;100.00;99626.47;4292750;33;34534;-78
2022/09/09 08:07:32;;;;;;;2.92;1.50;;;;;;;19.61;100.00;99628.28;4282076;33;34259;-78
2022/09/09 08:10:19;;;;;;;2.08;1.40;;;;;;;19.95;100.00;99622.88;4303333;33;34106;-77
2022/09/09 08:13:05;;;;;;;4.25;1.45;;;;;;;19.84;100.00;99616.38;4289463;33;34316;-78
2022/09/09 08:16:09;;;;;;;2.87;1.20;;;;;;;19.88;100.00;99631.12;4297578;33;36011;-78
2022/09/09 08:18:56;;;;;;;3.55;1.40;;;;;;;20.33;100.00;99626.59;4283820;33;36121;-77
2022/09/09 08:21:44;;;;;;;2.78;1.40;;;;;;;20.20;100.00;99626.00;4283425;33;35031;-77
2022/09/09 08:24:30;;;;;;;1.62;1.23;;;;;;;20.87;100.00;99611.38;4289344;33;34714;-77
2022/09/09 08:27:17;;;;;;;4.47;1.30;;;;;;;20.62;97.48;99614.66;4288216;33;35583;-78
2022/09/09 08:30:03;;;;;;;2.25;1.30;;;;;;;21.03;96.82;99617.53;4279416;33;35351;-77
2022/09/09 08:32:51;;;;;;;1.20;1.10;;;;;;;20.97;96.55;99626.59;4288638;33;34104;-77
2022/09/09 08:35:39;;;;;;;2.10;1.40;;;;;;;20.90;96.70;99624.53;4300850;33;35517;-77
2022/09/09 08:38:26;;;;;;;3.00;1.10;;;;;;;21.52;93.34;99627.56;4289900;33;35909;-77
2022/09/09 08:41:29;;;;;;;2.22;1.10;;;;;;;21.21;95.22;99626.06;4287369;33;33525;-77
2022/09/09 08:44:35;;;;;;;1.85;0.90;;;;;;;21.20;93.43;99621.66;4287470;33;34840;-76
2022/09/09 08:47:34;;;;;;;3.12;1.00;;;;;;;21.68;90.95;99624.50;4289628;33;34666;-77
2022/09/09 08:50:24;;;;;;;2.37;1.10;;;;;;;21.26;90.97;99624.91;4299059;33;36103;-77
2022/09/09 08:53:19;;;;;;;1.77;0.95;;;;;;;21.84;91.13;99635.37;4287570;33;34797;-77
2022/09/09 08:56:16;;;;;;;2.65;1.08;;;;;;;22.15;86.30;99622.06;4276719;33;34325;-77
2022/09/09 08:59:03;;;;;;;3.15;1.00;;;;;;;22.31;85.13;99618.97;4290099;33;35281;-77
2022/09/09 09:02:03;;;;;;;2.58;1.23;;;;;;;22.75;83.87;99624.34;4290127;33;35781;-76
2022/09/09 09:05:05;;;;;;;1.80;1.00;;;;;;;22.18;86.01;99622.09;4280361;33;34431;-76
2022/09/09 09:08:19;;;;;;;1.67;0.90;;;;;;;22.04;82.18;99629.56;4297649;33;34179;-77
2022/09/09 09:11:06;;;;;;;0.77;0.77;;;;;;;22.19;81.79;99618.09;4290187;33;35580;-75
2022/09/09 09:13:58;;;;;;;1.87;0.70;;;;;;;22.71;79.11;99614.34;4289911;33;35896;-75
2022/09/09 09:16:54;;;;;;;0.88;0.70;;;;;;;22.20;81.35;99624.50;4297647;33;34326;-75
2022/09/09 09:19:43;;;;;;;2.65;0.75;;;;;;;22.57;80.10;99621.50;4310694;33;34227;-75
2022/09/09 09:22:47;;;;;;;0.73;0.73;;;;;;;22.93;76.17;99606.84;4297596;33;34560;-76
2022/09/09 09:25:39;;;;;;;1.73;0.70;;;;;;;23.28;73.93;99603.31;4299466;33;35897;-76
2022/09/09 09:28:30;;;;;;;1.87;0.98;;;;;;;22.76;75.40;99605.59;4293397;33;34574;-74
2022/09/09 09:31:18;;;;;;;1.55;0.73;;;;;;;22.80;77.86;99606.41;4290789;33;34004;-74
2022/09/09 09:34:04;;;;;;;3.85;0.70;;;;;;;23.11;71.59;99590.97;4279866;33;34646;-76
2022/09/09 09:36:56;;;;;;;3.90;0.60;;;;;;;23.04;68.45;99588.13;4286062;33;34909;-75
2022/09/09 09:39:42;;;;;;;1.15;0.70;;;;;;;23.07;70.27;99588.13;4286060;33;35577;-75
2022/09/09 09:42:58;;;;;;;1.83;0.70;;;;;;;22.99;73.56;99588.53;4288645;33;34950;-75
2022/09/09 09:45:44;;;;;;;0.82;0.60;;;;;;;24.00;67.22;99601.34;4299096;33;34667;-75
2022/09/09 09:49:05;;;;;;;3.05;0.70;;;;;;;24.00;63.73;99610.53;4295173;33;34836;-74
2022/09/09 09:51:52;;;;;;;0.65;0.60;;;;;;;24.00;62.16;99604.94;4297861;33;34750;-75
2022/09/09 09:54:41;;;;;;;1.00;0.90;;;;;;;23.33;62.68;99606.53;4307277;33;34335;-74
2022/09/09 09:57:31;;;;;;;1.35;0.70;;;;;;;24.25;60.07;99612.47;4307954;33;35586;-75
2022/09/09 10:00:21;;;;;;;0.50;0.50;;;;;;;23.67;56.19;99600.53;4297238;33;35041;-74
2022/09/09 10:03:22;;;;;;;0.80;0.80;;;;;;;24.12;54.91;99600.91;4301187;33;34713;-74
2022/09/09 10:06:09;;;;;;;1.60;0.65;;;;;;;24.33;55.75;99593.62;4302237;33;34104;-74
2022/09/09 10:08:55;;;;;;;0.60;0.43;;;;;;;24.61;57.38;99592.75;4305920;33;34695;-74
2022/09/09 10:11:46;;;;;;;3.03;0.60;;;;;;;24.91;52.13;99589.41;4293821;33;36027;-74
2022/09/09 10:14:58;;;;;;;3.05;0.73;;;;;;;24.91;56.83;99597.81;4302253;33;34310;-74
2022/09/09 10:17:47;;;;;;;1.37;0.75;;;;;;;24.01;57.19;99594.53;4300835;33;32794;-74
2022/09/09 10:20:40;;;;;;;1.45;0.57;;;;;;;24.27;55.62;99582.06;4305718;33;34783;-73
2022/09/09 10:23:44;;;;;;;1.10;0.55;;;;;;;24.44;57.94;99588.84;4303389;33;35031;-74
2022/09/09 10:26:49;;;;;;;0.55;0.43;;;;;;;25.30;53.09;99588.34;4304262;33;35633;-74
2022/09/09 10:30:04;;;;;;;0.98;0.40;;;;;;;25.56;49.89;99589.78;4306619;33;34188;-76
2022/09/09 10:33:09;;;;;;;0.50;0.50;;;;;;;24.73;48.41;99595.09;4296427;33;35521;-74
2022/09/09 10:36:19;;;;;;;0.60;0.40;;;;;;;25.35;46.20;99585.91;4306942;33;35979;-74
2022/09/09 10:39:26;;;;;;;1.20;0.45;;;;;;;24.91;48.14;99590.19;4283964;33;34675;-73
2022/09/09 10:42:13;;;;;;;1.12;0.70;;;;;;;25.50;46.02;99580.19;4295005;33;35078;-73
2022/09/09 10:45:22;;;;;;;1.48;0.40;;;;;;;25.75;45.52;99585.56;4295934;33;35668;-74
2022/09/09 10:48:27;;;;;;;1.30;0.60;;;;;;;25.12;45.09;99586.44;4293999;33;34542;-74
2022/09/09 10:51:29;;;;;;;0.70;0.50;;;;;;;26.45;43.25;99588.06;4296125;33;33733;-74
2022/09/09 10:54:30;;;;;;;0.90;0.50;;;;;;;26.16;41.78;99582.00;4306966;33;34381;-73
2022/09/09 10:57:22;;;;;;;0.60;0.50;;;;;;;25.53;43.91;99591.41;4291970;33;35680;-74
2022/09/09 11:00:27;;;;;;;0.77;0.60;;;;;;;26.61;41.16;99576.25;4305394;33;36071;-74
2022/09/09 11:03:21;;;;;;;1.70;0.60;;;;;;;27.30;42.16;99574.87;4295662;33;35439;-74
2022/09/09 11:06:19;;;;;;;1.62;0.50;;;;;;;26.67;41.00;99577.38;4297631;33;34102;-74
2022/09/09 11:09:06;;;;;;;2.37;0.50;;;;;;;25.80;45.61;99571.09;4297562;33;34611;-75
2022/09/09 11:11:57;;;;;;;2.15;0.60;;;;;;;26.32;42.28;99568.16;4288487;33;34980;-75
2022/09/09 11:14:48;;;;;;;3.17;0.70;;;;;;;25.74;43.02;99555.94;4287429;33;34693;-74
2022/09/09 11:17:42;;;;;;;4.55;0.70;;;;;;;26.28;43.26;99567.41;4305966;33;35010;-75
2022/09/09 11:20:28;;;;;;;1.10;0.60;;;;;;;25.30;43.13;99554.72;4297825;33;34592;-74
2022/09/09 11:23:23;;;;;;;1.45;0.68;;;;;;;25.93;43.85;99557.38;4285540;33;36014;-75
2022/09/09 11:26:17;;;;;;;1.50;0.60;;;;;;;25.55;45.31;99562.91;4286929;33;35518;-74
2022/09/09 11:29:10;;;;;;;0.98;0.60;;;;;;;26.31;45.01;99566.56;4299377;33;34183;-75
2022/09/09 11:31:56;;;;;;;4.43;0.77;;;;;;;26.31;43.61;99574.19;4295849;33;34800;-75
2022/09/09 11:35:05;;;;;;;1.73;0.60;;;;;;;25.51;47.73;99571.38;4310303;33;35065;-73
2022/09/09 11:38:23;;;;;;;1.50;0.70;;;;;;;25.71;45.08;99574.41;4279961;33;34580;-73
2022/09/09 11:41:09;;;;;;;4.15;0.70;;;;;;;24.89;45.91;99580.59;4293571;33;35035;-74
2022/09/09 11:43:56;;;;;;;1.20;0.70;;;;;;;25.00;48.54;99567.31;4293723;33;34681;-73
2022/09/09 11:46:51;;;;;;;4.90;0.70;;;;;;;24.66;50.00;99565.13;4298935;33;35007;-75
2022/09/09 11:49:38;;;;;;;2.97;0.57;;;;;;;24.31;47.92;99573.66;4299137;33;34851;-73
2022/09/09 11:52:36;;;;;;;0.75;0.55;;;;;;;24.27;47.32;99568.06;4309998;33;33904;-74
2022/09/09 11:55:27;;;;;;;2.30;0.65;;;;;;;24.67;47.00;99569.50;4297241;33;33360;-74
2022/09/09 11:58:18;;;;;;;1.03;0.60;;;;;;;24.61;48.72;99570.34;4298064;33;36454;-74
2022/09/09 12:01:16;;;;;;;1.40;0.52;;;;;;;24.84;46.79;99572.63;4296307;33;34631;-74
2022/09/09 12:04:05;;;;;;;1.17;0.50;;;;;;;25.41;45.91;99557.44;4296237;33;33811;-73
2022/09/09 12:06:58;;;;;;;2.90;0.62;;;;;;;25.66;45.20;99560.81;4310633;33;34385;-75
2022/09/09 12:10:20;;;;;;;4.37;0.80;;;;;;;25.51;45.05;99570.56;4298089;33;34886;-74
2022/09/09 12:13:26;;;;;;;2.42;0.55;;;;;;;25.69;44.98;99582.41;4298560;33;34571;-73
2022/09/09 12:16:38;;;;;;;1.15;0.70;;;;;;;25.91;43.77;99596.28;4286870;33;34170;-74
2022/09/09 12:19:24;;;;;;;1.25;0.80;;;;;;;25.75;45.39;99571.53;4304388;33;34583;-74
2022/09/09 12:22:34;;;;;;;1.87;0.60;;;;;;;25.79;42.71;99575.13;4306913;33;36026;-74
2022/09/09 12:25:58;;;;;;;1.10;0.77;;;;;;;27.24;40.45;99559.69;4309457;33;35569;-73
2022/09/09 12:29:23;;;;;;;1.00;0.60;;;;;;;25.62;43.10;99567.69;4303334;33;34205;-74
2022/09/09 12:32:11;;;;;;;1.58;0.73;;;;;;;26.20;42.78;99554.66;4301154;33;34724;-73
2022/09/09 12:35:27;;;;;;;1.37;0.80;;;;;;;25.99;42.53;99545.28;4290790;33;34955;-74
2022/09/09 12:38:19;;;;;;;1.55;0.60;;;;;;;25.88;40.99;99544.59;4292111;33;35514;-75
2022/09/09 12:41:05;;;;;;;0.60;0.60;;;;;;;25.99;41.01;99542.47;4308137;33;35030;-73
2022/09/09 12:44:03;;;;;;;1.33;0.70;;;;;;;26.17;42.46;99524.59;4297942;33;35022;-74
2022/09/09 12:46:51;;;;;;;1.17;0.80;;;;;;;26.37;38.95;99531.16;4288483;33;35857;-73
2022/09/09 12:49:39;;;;;;;0.60;0.60;;;;;;;26.27;39.63;99525.69;4306279;33;35321;-74
2022/09/09 12:52:30;;;;;;;1.02;0.55;;;;;;;26.29;39.62;99531.69;4297435;33;34381;-74
2022/09/09 12:55:21;;;;;;;;;;;;;;;26.12;41.85;99531.47;4297489;33;34599;-74
2022/09/09 12:58:13;;;;;;;2.40;0.80;;;;;;;25.66;43.54;99526.34;4280481;33;33893;-74
2022/09/09 13:01:04;;;;;;;1.62;0.90;;;;;;;26.02;43.71;99516.38;4291694;33;34811;-74
2022/09/09 13:03:52;;;;;;;1.02;0.70;;;;;;;26.63;40.70;99509.19;4295319;33;34282;-74
2022/09/09 13:06:38;;;;;;;1.17;0.70;;;;;;;25.88;41.85;99499.69;4296759;33;35587;-74
2022/09/09 13:09:26;;;;;;;0.85;0.70;;;;;;;26.60;39.93;99484.75;4302505;33;34528;-74
2022/09/09 13:12:18;;;;;;;1.33;0.80;;;;;;;26.29;42.15;99492.38;4293574;33;34166;-74
2022/09/09 13:15:20;;;;;;;2.15;0.60;;;;;;;26.70;39.68;99481.00;4295592;33;34650;-74
2022/09/09 13:18:11;;;;;;;0.80;0.73;;;;;;;26.44;41.69;99490.94;4285583;33;35722;-73
2022/09/09 13:20:58;;;;;;;1.67;0.82;;;;;;;26.07;42.04;99489.03;4287687;33;35884;-74
2022/09/09 13:23:49;;;;;;;2.17;0.60;;;;;;;26.11;42.66;99487.00;4290453;33;34254;-73
2022/09/09 13:26:36;;;;;;;0.80;0.77;;;;;;;25.71;42.83;99495.03;4284211;33;34246;-74